sensor_id;sensor_type;location;lat;lon;timestamp;P1;durP1;ratioP1;P2;durP2;ratioP2
9465;SDS011;4771;48.726;9.006;2023-05-18T00:00:27;8.20;;;3.67;;
9465;SDS011;4771;48.726;9.006;2023-05-18T00:02:54;6.73;;;3.13;;
9465;SDS011;4771;48.726;9.006;2023-05-18T00:05:23;6.33;;;3.67;;
9465;SDS011;4771;48.726;9.006;2023-05-18T00:07:51;5.87;;;3.17;;
9465;SDS011;4771;48.726;9.006;2023-05-18T00:10:18;5.10;;;3.07;;
9465;SDS011;4771;48.726;9.006;2023-05-18T00:12:45;7.53;;;3.53;;
9465;SDS011;4771;48.726;9.006;2023-05-18T00:15:12;9.53;;;3.73;;
9465;SDS011;4771;48.726;9.006;2023-05-18T00:17:38;7.37;;;3.83;;
9465;SDS011;4771;48.726;9.006;2023-05-18T00:20:06;7.00;;;3.77;;
9465;SDS011;4771;48.726;9.006;2023-05-18T00:22:36;5.57;;;3.37;;
9465;SDS011;4771;48.726;9.006;2023-05-18T00:25:03;7.13;;;3.97;;
9465;SDS011;4771;48.726;9.006;2023-05-18T00:27:31;5.27;;;3.60;;
9465;SDS011;4771;48.726;9.006;2023-05-18T00:29:57;7.00;;;4.07;;
9465;SDS011;4771;48.726;9.006;2023-05-18T00:32:24;7.63;;;4.17;;
9465;SDS011;4771;48.726;9.006;2023-05-18T00:34:51;7.10;;;4.37;;
9465;SDS011;4771;48.726;9.006;2023-05-18T00:37:18;8.73;;;4.00;;
9465;SDS011;4771;48.726;9.006;2023-05-18T00:39:46;7.23;;;4.00;;
9465;SDS011;4771;48.726;9.006;2023-05-18T00:42:13;8.00;;;4.20;;
9465;SDS011;4771;48.726;9.006;2023-05-18T00:44:40;6.20;;;4.43;;
9465;SDS011;4771;48.726;9.006;2023-05-18T00:47:07;7.17;;;4.33;;
9465;SDS011;4771;48.726;9.006;2023-05-18T00:49:34;7.00;;;4.30;;
9465;SDS011;4771;48.726;9.006;2023-05-18T00:52:01;7.37;;;3.93;;
9465;SDS011;4771;48.726;9.006;2023-05-18T00:54:30;9.70;;;4.10;;
9465;SDS011;4771;48.726;9.006;2023-05-18T00:56:59;7.33;;;3.80;;
9465;SDS011;4771;48.726;9.006;2023-05-18T00:59:27;7.00;;;4.00;;
9465;SDS011;4771;48.726;9.006;2023-05-18T01:01:54;7.03;;;4.20;;
9465;SDS011;4771;48.726;9.006;2023-05-18T01:04:21;4.60;;;3.67;;
9465;SDS011;4771;48.726;9.006;2023-05-18T01:06:48;6.23;;;3.37;;
9465;SDS011;4771;48.726;9.006;2023-05-18T01:09:20;6.27;;;3.43;;
9465;SDS011;4771;48.726;9.006;2023-05-18T01:11:51;8.10;;;4.30;;
9465;SDS011;4771;48.726;9.006;2023-05-18T01:14:26;7.83;;;3.90;;
9465;SDS011;4771;48.726;9.006;2023-05-18T01:17:02;5.87;;;3.53;;
9465;SDS011;4771;48.726;9.006;2023-05-18T01:22:48;9.30;;;4.20;;
9465;SDS011;4771;48.726;9.006;2023-05-18T01:25:26;11.90;;;4.53;;
9465;SDS011;4771;48.726;9.006;2023-05-18T01:28:02;4.83;;;3.60;;
9465;SDS011;4771;48.726;9.006;2023-05-18T01:30:32;5.90;;;3.70;;
9465;SDS011;4771;48.726;9.006;2023-05-18T01:33:05;6.93;;;4.10;;
9465;SDS011;4771;48.726;9.006;2023-05-18T01:35:33;8.13;;;4.27;;
9465;SDS011;4771;48.726;9.006;2023-05-18T01:38:00;8.13;;;4.23;;
9465;SDS011;4771;48.726;9.006;2023-05-18T01:40:27;6.17;;;3.93;;
9465;SDS011;4771;48.726;9.006;2023-05-18T01:43:02;5.73;;;3.90;;
9465;SDS011;4771;48.726;9.006;2023-05-18T01:45:35;6.90;;;4.30;;
9465;SDS011;4771;48.726;9.006;2023-05-18T01:48:07;7.00;;;4.20;;
9465;SDS011;4771;48.726;9.006;2023-05-18T01:50:37;5.93;;;4.10;;
9465;SDS011;4771;48.726;9.006;2023-05-18T01:53:10;7.80;;;4.20;;
9465;SDS011;4771;48.726;9.006;2023-05-18T01:55:40;5.37;;;4.07;;
9465;SDS011;4771;48.726;9.006;2023-05-18T01:58:10;6.50;;;4.37;;
9465;SDS011;4771;48.726;9.006;2023-05-18T02:00:38;6.33;;;4.33;;
9465;SDS011;4771;48.726;9.006;2023-05-18T02:03:05;7.60;;;4.23;;
9465;SDS011;4771;48.726;9.006;2023-05-18T02:05:32;9.33;;;4.53;;
9465;SDS011;4771;48.726;9.006;2023-05-18T02:07:59;8.40;;;4.40;;
9465;SDS011;4771;48.726;9.006;2023-05-18T02:10:26;7.83;;;4.10;;
9465;SDS011;4771;48.726;9.006;2023-05-18T02:12:53;8.27;;;4.53;;
9465;SDS011;4771;48.726;9.006;2023-05-18T02:15:21;8.37;;;4.63;;
9465;SDS011;4771;48.726;9.006;2023-05-18T02:17:48;7.20;;;4.73;;
9465;SDS011;4771;48.726;9.006;2023-05-18T02:20:15;9.77;;;5.40;;
9465;SDS011;4771;48.726;9.006;2023-05-18T02:22:43;7.27;;;5.10;;
9465;SDS011;4771;48.726;9.006;2023-05-18T02:25:11;10.43;;;4.60;;
9465;SDS011;4771;48.726;9.006;2023-05-18T02:27:37;10.47;;;5.13;;
9465;SDS011;4771;48.726;9.006;2023-05-18T02:30:05;8.37;;;4.63;;
9465;SDS011;4771;48.726;9.006;2023-05-18T02:32:34;9.43;;;4.80;;
9465;SDS011;4771;48.726;9.006;2023-05-18T02:35:04;5.93;;;4.70;;
9465;SDS011;4771;48.726;9.006;2023-05-18T02:37:31;9.97;;;5.13;;
9465;SDS011;4771;48.726;9.006;2023-05-18T02:40:04;8.90;;;4.77;;
9465;SDS011;4771;48.726;9.006;2023-05-18T02:42:32;11.07;;;5.23;;
9465;SDS011;4771;48.726;9.006;2023-05-18T02:44:59;7.47;;;4.40;;
9465;SDS011;4771;48.726;9.006;2023-05-18T02:47:26;6.67;;;4.90;;
9465;SDS011;4771;48.726;9.006;2023-05-18T02:49:54;7.23;;;4.70;;
9465;SDS011;4771;48.726;9.006;2023-05-18T02:52:21;9.27;;;5.00;;
9465;SDS011;4771;48.726;9.006;2023-05-18T02:54:48;7.43;;;4.90;;
9465;SDS011;4771;48.726;9.006;2023-05-18T02:57:18;9.70;;;5.13;;
9465;SDS011;4771;48.726;9.006;2023-05-18T02:59:45;10.40;;;4.77;;
9465;SDS011;4771;48.726;9.006;2023-05-18T03:02:12;8.70;;;5.17;;
9465;SDS011;4771;48.726;9.006;2023-05-18T03:04:40;7.97;;;4.53;;
9465;SDS011;4771;48.726;9.006;2023-05-18T03:07:08;11.73;;;5.27;;
9465;SDS011;4771;48.726;9.006;2023-05-18T03:09:35;6.10;;;4.60;;
9465;SDS011;4771;48.726;9.006;2023-05-18T03:12:02;8.57;;;4.37;;
9465;SDS011;4771;48.726;9.006;2023-05-18T03:14:29;11.30;;;5.07;;
9465;SDS011;4771;48.726;9.006;2023-05-18T03:16:56;7.03;;;4.67;;
9465;SDS011;4771;48.726;9.006;2023-05-18T03:19:24;7.53;;;4.33;;
9465;SDS011;4771;48.726;9.006;2023-05-18T03:21:52;6.20;;;4.10;;
9465;SDS011;4771;48.726;9.006;2023-05-18T03:24:20;8.37;;;4.43;;
9465;SDS011;4771;48.726;9.006;2023-05-18T03:26:50;11.40;;;5.00;;
9465;SDS011;4771;48.726;9.006;2023-05-18T03:29:18;9.60;;;4.50;;
9465;SDS011;4771;48.726;9.006;2023-05-18T03:31:45;8.73;;;4.60;;
9465;SDS011;4771;48.726;9.006;2023-05-18T03:34:12;8.03;;;4.33;;
9465;SDS011;4771;48.726;9.006;2023-05-18T03:36:39;8.23;;;4.43;;
9465;SDS011;4771;48.726;9.006;2023-05-18T03:39:07;8.10;;;4.00;;
9465;SDS011;4771;48.726;9.006;2023-05-18T03:41:35;11.50;;;4.70;;
9465;SDS011;4771;48.726;9.006;2023-05-18T03:44:02;9.83;;;4.40;;
9465;SDS011;4771;48.726;9.006;2023-05-18T03:46:29;9.53;;;4.13;;
9465;SDS011;4771;48.726;9.006;2023-05-18T03:48:57;6.97;;;4.10;;
9465;SDS011;4771;48.726;9.006;2023-05-18T03:51:24;7.23;;;4.30;;
9465;SDS011;4771;48.726;9.006;2023-05-18T03:53:53;6.70;;;3.87;;
9465;SDS011;4771;48.726;9.006;2023-05-18T03:56:20;9.87;;;4.27;;
9465;SDS011;4771;48.726;9.006;2023-05-18T03:58:48;7.03;;;3.90;;
9465;SDS011;4771;48.726;9.006;2023-05-18T04:01:15;7.43;;;3.80;;
9465;SDS011;4771;48.726;9.006;2023-05-18T04:03:43;8.77;;;4.13;;
9465;SDS011;4771;48.726;9.006;2023-05-18T04:06:10;8.97;;;4.30;;
9465;SDS011;4771;48.726;9.006;2023-05-18T04:08:36;9.87;;;4.10;;
9465;SDS011;4771;48.726;9.006;2023-05-18T04:11:06;6.83;;;4.13;;
9465;SDS011;4771;48.726;9.006;2023-05-18T04:13:33;7.30;;;4.10;;
9465;SDS011;4771;48.726;9.006;2023-05-18T04:16:04;8.13;;;4.40;;
9465;SDS011;4771;48.726;9.006;2023-05-18T04:18:31;8.63;;;4.30;;
9465;SDS011;4771;48.726;9.006;2023-05-18T04:21:00;8.10;;;4.17;;
9465;SDS011;4771;48.726;9.006;2023-05-18T04:23:27;8.80;;;4.30;;
9465;SDS011;4771;48.726;9.006;2023-05-18T04:25:53;9.33;;;4.10;;
9465;SDS011;4771;48.726;9.006;2023-05-18T04:28:20;6.57;;;4.00;;
9465;SDS011;4771;48.726;9.006;2023-05-18T04:30:47;8.13;;;5.00;;
9465;SDS011;4771;48.726;9.006;2023-05-18T04:33:17;8.10;;;4.37;;
9465;SDS011;4771;48.726;9.006;2023-05-18T04:35:44;7.63;;;4.63;;
9465;SDS011;4771;48.726;9.006;2023-05-18T04:38:11;8.63;;;4.77;;
9465;SDS011;4771;48.726;9.006;2023-05-18T04:40:39;9.93;;;4.83;;
9465;SDS011;4771;48.726;9.006;2023-05-18T04:43:06;10.80;;;4.57;;
9465;SDS011;4771;48.726;9.006;2023-05-18T04:45:34;10.23;;;5.10;;
9465;SDS011;4771;48.726;9.006;2023-05-18T04:48:01;8.60;;;4.50;;
9465;SDS011;4771;48.726;9.006;2023-05-18T04:50:29;9.20;;;4.27;;
9465;SDS011;4771;48.726;9.006;2023-05-18T04:52:56;7.43;;;4.43;;
9465;SDS011;4771;48.726;9.006;2023-05-18T04:55:26;9.73;;;4.67;;
9465;SDS011;4771;48.726;9.006;2023-05-18T04:57:54;7.60;;;4.50;;
9465;SDS011;4771;48.726;9.006;2023-05-18T05:00:23;10.53;;;4.37;;
9465;SDS011;4771;48.726;9.006;2023-05-18T05:02:53;10.40;;;4.40;;
9465;SDS011;4771;48.726;9.006;2023-05-18T05:05:20;16.80;;;4.57;;
9465;SDS011;4771;48.726;9.006;2023-05-18T05:07:49;7.67;;;4.57;;
9465;SDS011;4771;48.726;9.006;2023-05-18T05:10:16;11.43;;;4.83;;
9465;SDS011;4771;48.726;9.006;2023-05-18T05:12:43;7.73;;;4.23;;
9465;SDS011;4771;48.726;9.006;2023-05-18T05:15:10;9.50;;;4.23;;
9465;SDS011;4771;48.726;9.006;2023-05-18T05:17:37;6.97;;;4.17;;
9465;SDS011;4771;48.726;9.006;2023-05-18T05:20:04;10.33;;;4.50;;
9465;SDS011;4771;48.726;9.006;2023-05-18T05:22:32;11.00;;;4.20;;
9465;SDS011;4771;48.726;9.006;2023-05-18T05:25:00;8.90;;;4.97;;
9465;SDS011;4771;48.726;9.006;2023-05-18T05:27:27;6.50;;;4.30;;
9465;SDS011;4771;48.726;9.006;2023-05-18T05:29:54;10.57;;;4.20;;
9465;SDS011;4771;48.726;9.006;2023-05-18T05:32:21;8.77;;;4.17;;
9465;SDS011;4771;48.726;9.006;2023-05-18T05:34:48;10.10;;;4.33;;
9465;SDS011;4771;48.726;9.006;2023-05-18T05:37:16;8.87;;;4.03;;
9465;SDS011;4771;48.726;9.006;2023-05-18T05:39:43;8.80;;;4.17;;
9465;SDS011;4771;48.726;9.006;2023-05-18T05:42:12;9.40;;;3.90;;
9465;SDS011;4771;48.726;9.006;2023-05-18T05:44:39;9.83;;;4.53;;
9465;SDS011;4771;48.726;9.006;2023-05-18T05:47:06;9.47;;;3.30;;
9465;SDS011;4771;48.726;9.006;2023-05-18T05:49:33;8.83;;;3.30;;
9465;SDS011;4771;48.726;9.006;2023-05-18T05:52:00;11.93;;;4.73;;
9465;SDS011;4771;48.726;9.006;2023-05-18T05:54:27;8.13;;;3.00;;
9465;SDS011;4771;48.726;9.006;2023-05-18T05:56:53;10.87;;;3.77;;
9465;SDS011;4771;48.726;9.006;2023-05-18T05:59:22;9.83;;;3.70;;
9465;SDS011;4771;48.726;9.006;2023-05-18T06:01:49;7.87;;;3.00;;
9465;SDS011;4771;48.726;9.006;2023-05-18T06:04:16;9.50;;;3.37;;
9465;SDS011;4771;48.726;9.006;2023-05-18T06:06:43;7.83;;;2.93;;
9465;SDS011;4771;48.726;9.006;2023-05-18T06:09:10;10.77;;;3.67;;
9465;SDS011;4771;48.726;9.006;2023-05-18T06:11:37;9.43;;;3.10;;
9465;SDS011;4771;48.726;9.006;2023-05-18T06:14:03;8.20;;;3.67;;
9465;SDS011;4771;48.726;9.006;2023-05-18T06:16:32;12.00;;;3.40;;
9465;SDS011;4771;48.726;9.006;2023-05-18T06:18:58;7.20;;;3.20;;
9465;SDS011;4771;48.726;9.006;2023-05-18T06:21:25;10.77;;;3.40;;
9465;SDS011;4771;48.726;9.006;2023-05-18T06:23:52;8.43;;;3.30;;
9465;SDS011;4771;48.726;9.006;2023-05-18T06:26:20;9.10;;;3.07;;
9465;SDS011;4771;48.726;9.006;2023-05-18T06:28:48;10.93;;;2.90;;
9465;SDS011;4771;48.726;9.006;2023-05-18T06:31:14;10.47;;;3.43;;
9465;SDS011;4771;48.726;9.006;2023-05-18T06:33:44;8.10;;;3.63;;
9465;SDS011;4771;48.726;9.006;2023-05-18T06:36:11;9.83;;;3.30;;
9465;SDS011;4771;48.726;9.006;2023-05-18T06:38:38;12.90;;;3.77;;
9465;SDS011;4771;48.726;9.006;2023-05-18T06:41:04;7.47;;;3.23;;
9465;SDS011;4771;48.726;9.006;2023-05-18T06:43:31;5.47;;;3.40;;
9465;SDS011;4771;48.726;9.006;2023-05-18T06:45:58;7.40;;;3.50;;
9465;SDS011;4771;48.726;9.006;2023-05-18T06:48:26;9.97;;;3.47;;
9465;SDS011;4771;48.726;9.006;2023-05-18T06:50:55;10.43;;;3.10;;
9465;SDS011;4771;48.726;9.006;2023-05-18T06:53:22;9.17;;;3.60;;
9465;SDS011;4771;48.726;9.006;2023-05-18T06:55:48;9.40;;;3.17;;
9465;SDS011;4771;48.726;9.006;2023-05-18T06:58:15;7.30;;;3.97;;
9465;SDS011;4771;48.726;9.006;2023-05-18T07:00:42;7.20;;;3.60;;
9465;SDS011;4771;48.726;9.006;2023-05-18T07:03:09;10.17;;;3.23;;
9465;SDS011;4771;48.726;9.006;2023-05-18T07:05:36;5.60;;;2.93;;
9465;SDS011;4771;48.726;9.006;2023-05-18T07:08:05;9.40;;;3.37;;
9465;SDS011;4771;48.726;9.006;2023-05-18T07:10:32;7.27;;;2.97;;
9465;SDS011;4771;48.726;9.006;2023-05-18T07:12:59;10.67;;;3.43;;
9465;SDS011;4771;48.726;9.006;2023-05-18T07:15:26;9.77;;;3.20;;
9465;SDS011;4771;48.726;9.006;2023-05-18T07:17:53;8.00;;;3.13;;
9465;SDS011;4771;48.726;9.006;2023-05-18T07:20:20;6.90;;;3.20;;
9465;SDS011;4771;48.726;9.006;2023-05-18T07:22:47;8.10;;;3.83;;
9465;SDS011;4771;48.726;9.006;2023-05-18T07:25:16;8.83;;;3.47;;
9465;SDS011;4771;48.726;9.006;2023-05-18T07:27:43;8.63;;;3.57;;
9465;SDS011;4771;48.726;9.006;2023-05-18T07:30:10;6.73;;;3.60;;
9465;SDS011;4771;48.726;9.006;2023-05-18T07:32:37;8.70;;;3.80;;
9465;SDS011;4771;48.726;9.006;2023-05-18T07:35:04;8.43;;;3.93;;
9465;SDS011;4771;48.726;9.006;2023-05-18T07:37:31;8.93;;;3.63;;
9465;SDS011;4771;48.726;9.006;2023-05-18T07:39:58;6.10;;;3.33;;
9465;SDS011;4771;48.726;9.006;2023-05-18T07:42:27;7.53;;;3.40;;
9465;SDS011;4771;48.726;9.006;2023-05-18T07:44:54;9.00;;;3.50;;
9465;SDS011;4771;48.726;9.006;2023-05-18T07:47:21;10.67;;;3.47;;
9465;SDS011;4771;48.726;9.006;2023-05-18T07:49:48;7.17;;;3.63;;
9465;SDS011;4771;48.726;9.006;2023-05-18T07:52:15;8.23;;;3.40;;
9465;SDS011;4771;48.726;9.006;2023-05-18T07:54:41;7.67;;;3.40;;
9465;SDS011;4771;48.726;9.006;2023-05-18T07:57:08;9.33;;;4.93;;
9465;SDS011;4771;48.726;9.006;2023-05-18T07:59:37;7.87;;;3.70;;
9465;SDS011;4771;48.726;9.006;2023-05-18T08:02:03;9.87;;;4.50;;
9465;SDS011;4771;48.726;9.006;2023-05-18T08:04:31;9.43;;;4.13;;
9465;SDS011;4771;48.726;9.006;2023-05-18T08:06:58;9.90;;;3.83;;
9465;SDS011;4771;48.726;9.006;2023-05-18T08:09:27;9.83;;;3.70;;
9465;SDS011;4771;48.726;9.006;2023-05-18T08:11:54;7.67;;;4.13;;
9465;SDS011;4771;48.726;9.006;2023-05-18T08:14:21;9.50;;;3.77;;
9465;SDS011;4771;48.726;9.006;2023-05-18T08:16:49;9.07;;;3.73;;
9465;SDS011;4771;48.726;9.006;2023-05-18T08:19:16;8.60;;;4.20;;
9465;SDS011;4771;48.726;9.006;2023-05-18T08:21:42;7.73;;;3.77;;
9465;SDS011;4771;48.726;9.006;2023-05-18T08:24:10;8.37;;;3.73;;
9465;SDS011;4771;48.726;9.006;2023-05-18T08:26:37;9.97;;;3.60;;
9465;SDS011;4771;48.726;9.006;2023-05-18T08:29:04;7.90;;;3.77;;
9465;SDS011;4771;48.726;9.006;2023-05-18T08:31:34;8.43;;;3.53;;
9465;SDS011;4771;48.726;9.006;2023-05-18T08:34:03;10.27;;;3.83;;
9465;SDS011;4771;48.726;9.006;2023-05-18T08:36:31;10.18;;;4.13;;
9465;SDS011;4771;48.726;9.006;2023-05-18T08:38:58;8.93;;;3.90;;
9465;SDS011;4771;48.726;9.006;2023-05-18T08:41:28;21.90;;;4.70;;
9465;SDS011;4771;48.726;9.006;2023-05-18T08:43:58;7.70;;;4.03;;
9465;SDS011;4771;48.726;9.006;2023-05-18T08:46:30;7.53;;;3.55;;
9465;SDS011;4771;48.726;9.006;2023-05-18T08:48:59;7.20;;;3.20;;
9465;SDS011;4771;48.726;9.006;2023-05-18T08:51:30;7.50;;;3.60;;
9465;SDS011;4771;48.726;9.006;2023-05-18T08:53:59;10.25;;;3.88;;
9465;SDS011;4771;48.726;9.006;2023-05-18T08:56:27;8.00;;;3.88;;
9465;SDS011;4771;48.726;9.006;2023-05-18T08:58:57;8.45;;;3.60;;
9465;SDS011;4771;48.726;9.006;2023-05-18T09:01:25;9.30;;;3.38;;
9465;SDS011;4771;48.726;9.006;2023-05-18T09:03:53;10.35;;;3.42;;
9465;SDS011;4771;48.726;9.006;2023-05-18T09:06:22;9.27;;;4.03;;
9465;SDS011;4771;48.726;9.006;2023-05-18T09:08:51;7.78;;;3.67;;
9465;SDS011;4771;48.726;9.006;2023-05-18T09:11:19;6.93;;;3.20;;
9465;SDS011;4771;48.726;9.006;2023-05-18T09:13:47;7.88;;;3.70;;
9465;SDS011;4771;48.726;9.006;2023-05-18T09:16:15;10.48;;;3.58;;
9465;SDS011;4771;48.726;9.006;2023-05-18T09:18:42;9.13;;;3.85;;
9465;SDS011;4771;48.726;9.006;2023-05-18T09:21:09;7.82;;;3.30;;
9465;SDS011;4771;48.726;9.006;2023-05-18T09:23:37;8.48;;;3.72;;
9465;SDS011;4771;48.726;9.006;2023-05-18T09:26:06;7.70;;;3.22;;
9465;SDS011;4771;48.726;9.006;2023-05-18T09:28:36;7.25;;;3.10;;
9465;SDS011;4771;48.726;9.006;2023-05-18T09:31:04;8.70;;;3.50;;
9465;SDS011;4771;48.726;9.006;2023-05-18T09:33:33;12.40;;;3.53;;
9465;SDS011;4771;48.726;9.006;2023-05-18T09:36:03;8.45;;;3.20;;
9465;SDS011;4771;48.726;9.006;2023-05-18T09:38:30;9.10;;;3.13;;
9465;SDS011;4771;48.726;9.006;2023-05-18T09:41:02;11.07;;;3.30;;
9465;SDS011;4771;48.726;9.006;2023-05-18T09:43:30;8.80;;;3.20;;
9465;SDS011;4771;48.726;9.006;2023-05-18T09:46:00;6.97;;;3.15;;
9465;SDS011;4771;48.726;9.006;2023-05-18T09:48:32;10.35;;;3.28;;
9465;SDS011;4771;48.726;9.006;2023-05-18T09:51:00;8.48;;;3.22;;
9465;SDS011;4771;48.726;9.006;2023-05-18T09:53:27;6.25;;;2.90;;
9465;SDS011;4771;48.726;9.006;2023-05-18T09:55:54;10.68;;;3.40;;
9465;SDS011;4771;48.726;9.006;2023-05-18T09:58:21;9.57;;;2.72;;
9465;SDS011;4771;48.726;9.006;2023-05-18T10:00:49;8.63;;;3.50;;
9465;SDS011;4771;48.726;9.006;2023-05-18T10:03:21;8.07;;;3.20;;
9465;SDS011;4771;48.726;9.006;2023-05-18T10:05:49;9.00;;;2.85;;
9465;SDS011;4771;48.726;9.006;2023-05-18T10:08:16;9.95;;;3.17;;
9465;SDS011;4771;48.726;9.006;2023-05-18T10:10:44;6.88;;;2.90;;
9465;SDS011;4771;48.726;9.006;2023-05-18T10:13:12;8.82;;;3.25;;
9465;SDS011;4771;48.726;9.006;2023-05-18T10:15:46;4.82;;;2.88;;
9465;SDS011;4771;48.726;9.006;2023-05-18T10:18:19;8.10;;;3.00;;
9465;SDS011;4771;48.726;9.006;2023-05-18T10:20:48;7.32;;;3.20;;
9465;SDS011;4771;48.726;9.006;2023-05-18T10:23:16;7.13;;;3.17;;
9465;SDS011;4771;48.726;9.006;2023-05-18T10:25:44;8.38;;;3.03;;
9465;SDS011;4771;48.726;9.006;2023-05-18T10:28:13;7.30;;;2.90;;
9465;SDS011;4771;48.726;9.006;2023-05-18T10:30:48;5.88;;;2.95;;
9465;SDS011;4771;48.726;9.006;2023-05-18T10:33:22;9.20;;;2.90;;
9465;SDS011;4771;48.726;9.006;2023-05-18T10:35:51;7.03;;;3.30;;
9465;SDS011;4771;48.726;9.006;2023-05-18T10:38:19;9.40;;;2.97;;
9465;SDS011;4771;48.726;9.006;2023-05-18T10:40:48;9.50;;;2.85;;
9465;SDS011;4771;48.726;9.006;2023-05-18T10:43:17;7.78;;;3.55;;
9465;SDS011;4771;48.726;9.006;2023-05-18T10:45:47;8.05;;;3.47;;
9465;SDS011;4771;48.726;9.006;2023-05-18T10:48:18;6.15;;;2.88;;
9465;SDS011;4771;48.726;9.006;2023-05-18T10:50:48;7.50;;;3.30;;
9465;SDS011;4771;48.726;9.006;2023-05-18T10:53:16;7.55;;;3.03;;
9465;SDS011;4771;48.726;9.006;2023-05-18T10:55:45;12.60;;;3.40;;
9465;SDS011;4771;48.726;9.006;2023-05-18T10:58:14;5.65;;;2.83;;
9465;SDS011;4771;48.726;9.006;2023-05-18T11:00:43;8.15;;;2.75;;
9465;SDS011;4771;48.726;9.006;2023-05-18T11:03:13;10.05;;;3.53;;
9465;SDS011;4771;48.726;9.006;2023-05-18T11:05:42;6.18;;;2.53;;
9465;SDS011;4771;48.726;9.006;2023-05-18T11:08:10;7.25;;;3.30;;
9465;SDS011;4771;48.726;9.006;2023-05-18T11:10:39;7.28;;;3.42;;
9465;SDS011;4771;48.726;9.006;2023-05-18T11:13:07;8.77;;;2.63;;
9465;SDS011;4771;48.726;9.006;2023-05-18T11:18:32;9.38;;;2.95;;
9465;SDS011;4771;48.726;9.006;2023-05-18T11:21:01;6.68;;;2.95;;
9465;SDS011;4771;48.726;9.006;2023-05-18T11:23:31;6.43;;;2.97;;
9465;SDS011;4771;48.726;9.006;2023-05-18T11:25:58;11.25;;;3.00;;
9465;SDS011;4771;48.726;9.006;2023-05-18T11:28:27;5.90;;;2.92;;
9465;SDS011;4771;48.726;9.006;2023-05-18T11:30:54;9.77;;;3.22;;
9465;SDS011;4771;48.726;9.006;2023-05-18T11:33:22;7.50;;;3.15;;
9465;SDS011;4771;48.726;9.006;2023-05-18T11:35:54;5.82;;;2.80;;
9465;SDS011;4771;48.726;9.006;2023-05-18T11:38:22;8.15;;;3.13;;
9465;SDS011;4771;48.726;9.006;2023-05-18T11:40:55;7.38;;;2.95;;
9465;SDS011;4771;48.726;9.006;2023-05-18T11:43:24;5.95;;;2.63;;
9465;SDS011;4771;48.726;9.006;2023-05-18T11:45:51;7.88;;;3.13;;
9465;SDS011;4771;48.726;9.006;2023-05-18T11:48:19;7.63;;;3.20;;
9465;SDS011;4771;48.726;9.006;2023-05-18T11:50:47;6.95;;;2.90;;
9465;SDS011;4771;48.726;9.006;2023-05-18T11:53:15;4.65;;;2.40;;
9465;SDS011;4771;48.726;9.006;2023-05-18T11:55:42;6.85;;;2.47;;
9465;SDS011;4771;48.726;9.006;2023-05-18T11:58:12;9.90;;;3.03;;
9465;SDS011;4771;48.726;9.006;2023-05-18T12:00:43;7.47;;;2.70;;
9465;SDS011;4771;48.726;9.006;2023-05-18T12:03:11;7.40;;;2.75;;
9465;SDS011;4771;48.726;9.006;2023-05-18T12:05:39;6.60;;;2.90;;
9465;SDS011;4771;48.726;9.006;2023-05-18T12:08:08;9.50;;;3.08;;
9465;SDS011;4771;48.726;9.006;2023-05-18T12:10:36;8.95;;;2.80;;
9465;SDS011;4771;48.726;9.006;2023-05-18T12:13:04;8.32;;;2.58;;
9465;SDS011;4771;48.726;9.006;2023-05-18T12:15:32;7.35;;;2.67;;
9465;SDS011;4771;48.726;9.006;2023-05-18T12:18:01;5.85;;;2.30;;
9465;SDS011;4771;48.726;9.006;2023-05-18T12:20:28;8.35;;;2.30;;
9465;SDS011;4771;48.726;9.006;2023-05-18T12:22:55;7.25;;;2.60;;
9465;SDS011;4771;48.726;9.006;2023-05-18T12:25:24;5.55;;;2.35;;
9465;SDS011;4771;48.726;9.006;2023-05-18T12:27:52;5.40;;;2.50;;
9465;SDS011;4771;48.726;9.006;2023-05-18T12:30:21;8.10;;;2.95;;
9465;SDS011;4771;48.726;9.006;2023-05-18T12:32:51;5.88;;;2.60;;
9465;SDS011;4771;48.726;9.006;2023-05-18T12:35:20;8.80;;;2.72;;
9465;SDS011;4771;48.726;9.006;2023-05-18T12:37:47;8.15;;;2.65;;
9465;SDS011;4771;48.726;9.006;2023-05-18T12:40:15;6.38;;;2.55;;
9465;SDS011;4771;48.726;9.006;2023-05-18T12:42:49;7.85;;;2.72;;
9465;SDS011;4771;48.726;9.006;2023-05-18T12:45:17;6.07;;;2.70;;
9465;SDS011;4771;48.726;9.006;2023-05-18T12:47:45;7.28;;;2.33;;
9465;SDS011;4771;48.726;9.006;2023-05-18T12:50:19;7.57;;;2.60;;
9465;SDS011;4771;48.726;9.006;2023-05-18T12:52:46;9.02;;;2.78;;
9465;SDS011;4771;48.726;9.006;2023-05-18T12:55:16;8.20;;;2.38;;
9465;SDS011;4771;48.726;9.006;2023-05-18T12:57:45;5.30;;;2.42;;
9465;SDS011;4771;48.726;9.006;2023-05-18T13:00:24;7.47;;;2.78;;
9465;SDS011;4771;48.726;9.006;2023-05-18T13:02:50;6.40;;;2.20;;
9465;SDS011;4771;48.726;9.006;2023-05-18T13:05:22;6.03;;;2.60;;
9465;SDS011;4771;48.726;9.006;2023-05-18T13:07:49;6.90;;;2.90;;
9465;SDS011;4771;48.726;9.006;2023-05-18T13:10:17;9.73;;;2.70;;
9465;SDS011;4771;48.726;9.006;2023-05-18T13:12:46;5.40;;;2.40;;
9465;SDS011;4771;48.726;9.006;2023-05-18T13:15:14;7.95;;;2.40;;
9465;SDS011;4771;48.726;9.006;2023-05-18T13:17:55;7.18;;;2.95;;
9465;SDS011;4771;48.726;9.006;2023-05-18T13:20:24;6.20;;;2.53;;
9465;SDS011;4771;48.726;9.006;2023-05-18T13:22:57;8.05;;;2.60;;
9465;SDS011;4771;48.726;9.006;2023-05-18T13:25:24;6.90;;;2.45;;
9465;SDS011;4771;48.726;9.006;2023-05-18T13:27:51;6.00;;;2.50;;
9465;SDS011;4771;48.726;9.006;2023-05-18T13:30:19;7.22;;;2.10;;
9465;SDS011;4771;48.726;9.006;2023-05-18T13:32:46;6.63;;;2.58;;
9465;SDS011;4771;48.726;9.006;2023-05-18T13:35:13;5.63;;;2.47;;
9465;SDS011;4771;48.726;9.006;2023-05-18T13:37:41;5.93;;;2.45;;
9465;SDS011;4771;48.726;9.006;2023-05-18T13:40:09;9.77;;;2.33;;
9465;SDS011;4771;48.726;9.006;2023-05-18T13:42:37;7.65;;;2.50;;
9465;SDS011;4771;48.726;9.006;2023-05-18T13:45:04;8.70;;;2.55;;
9465;SDS011;4771;48.726;9.006;2023-05-18T13:47:32;6.35;;;2.45;;
9465;SDS011;4771;48.726;9.006;2023-05-18T13:49:59;7.18;;;2.38;;
9465;SDS011;4771;48.726;9.006;2023-05-18T13:52:26;4.75;;;2.30;;
9465;SDS011;4771;48.726;9.006;2023-05-18T13:54:54;5.95;;;2.33;;
9465;SDS011;4771;48.726;9.006;2023-05-18T13:57:21;6.25;;;2.05;;
9465;SDS011;4771;48.726;9.006;2023-05-18T13:59:50;7.50;;;2.33;;
9465;SDS011;4771;48.726;9.006;2023-05-18T14:02:17;6.97;;;2.65;;
9465;SDS011;4771;48.726;9.006;2023-05-18T14:04:43;6.85;;;2.47;;
9465;SDS011;4771;48.726;9.006;2023-05-18T14:07:10;6.65;;;2.70;;
9465;SDS011;4771;48.726;9.006;2023-05-18T14:09:37;4.82;;;2.47;;
9465;SDS011;4771;48.726;9.006;2023-05-18T14:12:06;7.85;;;2.28;;
9465;SDS011;4771;48.726;9.006;2023-05-18T14:14:34;6.07;;;2.42;;
9465;SDS011;4771;48.726;9.006;2023-05-18T14:17:02;6.90;;;2.30;;
9465;SDS011;4771;48.726;9.006;2023-05-18T14:19:28;7.03;;;2.63;;
9465;SDS011;4771;48.726;9.006;2023-05-18T14:21:55;3.53;;;2.03;;
9465;SDS011;4771;48.726;9.006;2023-05-18T14:24:22;5.20;;;2.33;;
9465;SDS011;4771;48.726;9.006;2023-05-18T14:26:49;5.45;;;2.15;;
9465;SDS011;4771;48.726;9.006;2023-05-18T14:29:18;6.75;;;2.35;;
9465;SDS011;4771;48.726;9.006;2023-05-18T14:31:45;4.82;;;2.15;;
9465;SDS011;4771;48.726;9.006;2023-05-18T14:34:12;5.97;;;2.30;;
9465;SDS011;4771;48.726;9.006;2023-05-18T14:36:39;9.10;;;2.53;;
9465;SDS011;4771;48.726;9.006;2023-05-18T14:39:06;5.75;;;2.63;;
9465;SDS011;4771;48.726;9.006;2023-05-18T14:41:33;5.13;;;2.40;;
9465;SDS011;4771;48.726;9.006;2023-05-18T14:44:00;6.63;;;2.50;;
9465;SDS011;4771;48.726;9.006;2023-05-18T14:46:29;5.43;;;2.08;;
9465;SDS011;4771;48.726;9.006;2023-05-18T14:48:56;5.63;;;2.33;;
9465;SDS011;4771;48.726;9.006;2023-05-18T14:51:23;5.80;;;2.40;;
9465;SDS011;4771;48.726;9.006;2023-05-18T14:53:49;4.95;;;2.15;;
9465;SDS011;4771;48.726;9.006;2023-05-18T14:56:16;8.00;;;2.53;;
9465;SDS011;4771;48.726;9.006;2023-05-18T14:58:43;7.15;;;3.25;;
9465;SDS011;4771;48.726;9.006;2023-05-18T15:01:10;13.40;;;6.07;;
9465;SDS011;4771;48.726;9.006;2023-05-18T15:03:39;9.98;;;3.67;;
9465;SDS011;4771;48.726;9.006;2023-05-18T15:06:05;6.47;;;2.40;;
9465;SDS011;4771;48.726;9.006;2023-05-18T15:08:32;7.63;;;2.80;;
9465;SDS011;4771;48.726;9.006;2023-05-18T15:10:59;10.02;;;3.03;;
9465;SDS011;4771;48.726;9.006;2023-05-18T15:13:26;6.75;;;2.63;;
9465;SDS011;4771;48.726;9.006;2023-05-18T15:15:53;5.07;;;2.60;;
9465;SDS011;4771;48.726;9.006;2023-05-18T15:18:20;7.78;;;2.22;;
9465;SDS011;4771;48.726;9.006;2023-05-18T15:20:48;5.95;;;2.40;;
9465;SDS011;4771;48.726;9.006;2023-05-18T15:23:15;6.13;;;2.00;;